Terminal Aerodrome Forecast
Issued by NWS

Home | Current Version | Previous Version | Text Only | Print | Product List | Glossary On
Versions: 1 2 3 4 5 6 7 8 9 10 11 12 13 14 15
000
FTUS45 KREV 310500
TAFTRK
TAF
KTRK 310520Z 3106/0106 20010KT P6SM SCT150 OVC180
     FM311400 20015G24KT P6SM SCT080 BKN150
     FM312200 21010G18KT P6SM -RA BKN040 OVC080
     FM010100 21008KT 5SM -RA OVC030
      AMD NOT SKED TIL 311200=

USA.gov is the U.S. government's official web portal to all federal, state and local government web resources and services.